메인 페이지
METAR-TAF:

METAR-TAF

공항 :

포트오브스페인, 트리니다드 섬, 트리니다드 토바고

위도: 10-37N, 경도: 061-21W, 고도: 12m

현재 날씨관측

예보는 23분 전, 21:00시(UTC)에 발표되었습니다.
17kt
온도 27°C
습도 74%
기압 1015 hPa
시정: 4000m
고도 1800ft 상공 구름 조금
고도 4000ft 상공 구름 많음
약한비, 시계 내 소나기

METAR: TTPP 192100Z 10017KT 4000 -RA VCSH FEW018 BKN040 27/22 Q1015 NOSIG RMK JP..N TO E TO S

시각: 17:23 (21:23 UTC)

예보

예보는 5 시간 23분 전, 16:00시(UTC)에 발표되었습니다.
예보 대상 시간: 19일 18시부터 20일 18시까지 (UTC)
15kt
시정 10km 이상
고도 1800ft 상공 구름 보통
전환 중
20일 00시부터 20일 02시까지 (UTC)
5kt
전환 중
20일 12시부터 20일 14시까지 (UTC)
13kt

TAF: TTPP 191600Z 1918/2018 09015KT 9999 SCT018 BECMG 2000/2002 09005KT BECMG 2012/2014 09013KT

4,000개 이상의 공항 관측 자료 및 예보 (METAR 및 TAF 보고).

지도상에서 검색 가능한 기상관측소가 노란 점과 빨간 점으로 표시되어 있습니다.

기상관측소 명을 보려면 표시 위로 마우스를 이동하세요.

날씨 관측과 예보를 보려면 클릭하세요.

지도 변경 : 확대하려면 엑스 표시가 있는 녹색 버튼, 축소하려면 빼기 표시가 있는 녹색 버튼, 다음 페이지의 지도를 보려면 녹색 화살표를 클릭하세요.


METAR-TAF: